sensor_id;sensor_type;location;lat;lon;timestamp;P1;durP1;ratioP1;P2;durP2;ratioP2
8001;SDS011;4046;48.774;8.732;2023-10-31T00:02:15;1.80;;;1.70;;
8001;SDS011;4046;48.774;8.732;2023-10-31T00:04:41;1.90;;;1.80;;
8001;SDS011;4046;48.774;8.732;2023-10-31T00:07:07;1.97;;;1.87;;
8001;SDS011;4046;48.774;8.732;2023-10-31T00:09:32;1.83;;;1.73;;
8001;SDS011;4046;48.774;8.732;2023-10-31T00:11:58;1.83;;;1.73;;
8001;SDS011;4046;48.774;8.732;2023-10-31T00:14:24;2.00;;;1.90;;
8001;SDS011;4046;48.774;8.732;2023-10-31T00:16:50;1.90;;;1.80;;
8001;SDS011;4046;48.774;8.732;2023-10-31T00:19:16;1.90;;;1.80;;
8001;SDS011;4046;48.774;8.732;2023-10-31T00:21:41;1.90;;;1.80;;
8001;SDS011;4046;48.774;8.732;2023-10-31T00:24:07;1.93;;;1.83;;
8001;SDS011;4046;48.774;8.732;2023-10-31T00:26:33;1.60;;;1.50;;
8001;SDS011;4046;48.774;8.732;2023-10-31T00:28:58;2.30;;;2.20;;
8001;SDS011;4046;48.774;8.732;2023-10-31T00:31:24;1.77;;;1.67;;
8001;SDS011;4046;48.774;8.732;2023-10-31T00:33:50;2.00;;;1.90;;
8001;SDS011;4046;48.774;8.732;2023-10-31T00:36:15;1.70;;;1.60;;
8001;SDS011;4046;48.774;8.732;2023-10-31T00:38:41;1.73;;;1.63;;
8001;SDS011;4046;48.774;8.732;2023-10-31T00:41:07;2.00;;;1.90;;
8001;SDS011;4046;48.774;8.732;2023-10-31T00:43:33;1.60;;;1.50;;
8001;SDS011;4046;48.774;8.732;2023-10-31T00:45:58;1.70;;;1.60;;
8001;SDS011;4046;48.774;8.732;2023-10-31T00:48:24;1.77;;;1.67;;
8001;SDS011;4046;48.774;8.732;2023-10-31T00:50:50;1.77;;;1.67;;
8001;SDS011;4046;48.774;8.732;2023-10-31T00:53:15;1.50;;;1.40;;
8001;SDS011;4046;48.774;8.732;2023-10-31T00:55:41;1.70;;;1.60;;
8001;SDS011;4046;48.774;8.732;2023-10-31T00:58:07;1.60;;;1.50;;
8001;SDS011;4046;48.774;8.732;2023-10-31T01:00:33;1.80;;;1.70;;
8001;SDS011;4046;48.774;8.732;2023-10-31T01:02:59;1.70;;;1.60;;
8001;SDS011;4046;48.774;8.732;2023-10-31T01:05:25;1.47;;;1.37;;
8001;SDS011;4046;48.774;8.732;2023-10-31T01:07:53;1.70;;;1.60;;
8001;SDS011;4046;48.774;8.732;2023-10-31T01:10:19;1.70;;;1.60;;
8001;SDS011;4046;48.774;8.732;2023-10-31T01:12:45;1.70;;;1.60;;
8001;SDS011;4046;48.774;8.732;2023-10-31T01:15:11;1.90;;;1.80;;
8001;SDS011;4046;48.774;8.732;2023-10-31T01:17:36;1.60;;;1.50;;
8001;SDS011;4046;48.774;8.732;2023-10-31T01:20:03;1.60;;;1.50;;
8001;SDS011;4046;48.774;8.732;2023-10-31T01:22:29;1.70;;;1.60;;
8001;SDS011;4046;48.774;8.732;2023-10-31T01:24:54;1.60;;;1.50;;
8001;SDS011;4046;48.774;8.732;2023-10-31T01:27:20;1.50;;;1.40;;
8001;SDS011;4046;48.774;8.732;2023-10-31T01:29:46;1.50;;;1.40;;
8001;SDS011;4046;48.774;8.732;2023-10-31T01:32:11;1.50;;;1.40;;
8001;SDS011;4046;48.774;8.732;2023-10-31T01:34:37;1.40;;;1.30;;
8001;SDS011;4046;48.774;8.732;2023-10-31T01:37:03;1.60;;;1.50;;
8001;SDS011;4046;48.774;8.732;2023-10-31T01:39:28;1.60;;;1.50;;
8001;SDS011;4046;48.774;8.732;2023-10-31T01:41:54;1.40;;;1.30;;
8001;SDS011;4046;48.774;8.732;2023-10-31T01:44:20;1.40;;;1.30;;
8001;SDS011;4046;48.774;8.732;2023-10-31T01:46:46;1.40;;;1.30;;
8001;SDS011;4046;48.774;8.732;2023-10-31T01:49:12;1.60;;;1.50;;
8001;SDS011;4046;48.774;8.732;2023-10-31T01:51:39;1.60;;;1.50;;
8001;SDS011;4046;48.774;8.732;2023-10-31T01:54:06;1.70;;;1.60;;
8001;SDS011;4046;48.774;8.732;2023-10-31T01:56:33;1.60;;;1.50;;
8001;SDS011;4046;48.774;8.732;2023-10-31T01:58:59;1.50;;;1.40;;
8001;SDS011;4046;48.774;8.732;2023-10-31T02:01:25;1.40;;;1.30;;
8001;SDS011;4046;48.774;8.732;2023-10-31T02:03:51;1.53;;;1.43;;
8001;SDS011;4046;48.774;8.732;2023-10-31T02:06:19;1.50;;;1.40;;
8001;SDS011;4046;48.774;8.732;2023-10-31T02:08:46;1.40;;;1.30;;
8001;SDS011;4046;48.774;8.732;2023-10-31T02:11:13;1.40;;;1.30;;
8001;SDS011;4046;48.774;8.732;2023-10-31T02:13:38;1.30;;;1.20;;
8001;SDS011;4046;48.774;8.732;2023-10-31T02:16:05;1.40;;;1.30;;
8001;SDS011;4046;48.774;8.732;2023-10-31T02:18:31;1.60;;;1.50;;
8001;SDS011;4046;48.774;8.732;2023-10-31T02:20:57;1.53;;;1.43;;
8001;SDS011;4046;48.774;8.732;2023-10-31T02:23:23;1.20;;;1.10;;
8001;SDS011;4046;48.774;8.732;2023-10-31T02:25:48;1.47;;;1.37;;
8001;SDS011;4046;48.774;8.732;2023-10-31T02:28:14;1.57;;;1.47;;
8001;SDS011;4046;48.774;8.732;2023-10-31T02:30:40;1.30;;;1.20;;
8001;SDS011;4046;48.774;8.732;2023-10-31T02:33:06;1.23;;;1.13;;
8001;SDS011;4046;48.774;8.732;2023-10-31T02:35:32;1.40;;;1.30;;
8001;SDS011;4046;48.774;8.732;2023-10-31T02:37:57;1.30;;;1.20;;
8001;SDS011;4046;48.774;8.732;2023-10-31T02:40:23;1.40;;;1.30;;
8001;SDS011;4046;48.774;8.732;2023-10-31T02:42:49;1.33;;;1.23;;
8001;SDS011;4046;48.774;8.732;2023-10-31T02:45:15;1.50;;;1.40;;
8001;SDS011;4046;48.774;8.732;2023-10-31T02:47:40;1.30;;;1.20;;
8001;SDS011;4046;48.774;8.732;2023-10-31T02:50:06;1.37;;;1.27;;
8001;SDS011;4046;48.774;8.732;2023-10-31T02:52:32;1.50;;;1.40;;
8001;SDS011;4046;48.774;8.732;2023-10-31T02:54:58;1.30;;;1.20;;
8001;SDS011;4046;48.774;8.732;2023-10-31T02:57:24;1.40;;;1.30;;
8001;SDS011;4046;48.774;8.732;2023-10-31T02:59:49;1.40;;;1.30;;
8001;SDS011;4046;48.774;8.732;2023-10-31T03:02:15;1.30;;;1.20;;
8001;SDS011;4046;48.774;8.732;2023-10-31T03:04:41;1.30;;;1.20;;
8001;SDS011;4046;48.774;8.732;2023-10-31T03:07:06;1.27;;;1.17;;
8001;SDS011;4046;48.774;8.732;2023-10-31T03:09:32;1.40;;;1.30;;
8001;SDS011;4046;48.774;8.732;2023-10-31T03:11:58;1.30;;;1.20;;
8001;SDS011;4046;48.774;8.732;2023-10-31T03:14:24;1.23;;;1.13;;
8001;SDS011;4046;48.774;8.732;2023-10-31T03:16:50;1.30;;;1.20;;
8001;SDS011;4046;48.774;8.732;2023-10-31T03:19:16;1.30;;;1.20;;
8001;SDS011;4046;48.774;8.732;2023-10-31T03:21:41;1.20;;;1.10;;
8001;SDS011;4046;48.774;8.732;2023-10-31T03:24:07;1.30;;;1.20;;
8001;SDS011;4046;48.774;8.732;2023-10-31T03:26:33;1.30;;;1.20;;
8001;SDS011;4046;48.774;8.732;2023-10-31T03:28:59;1.40;;;1.30;;
8001;SDS011;4046;48.774;8.732;2023-10-31T03:31:24;1.30;;;1.20;;
8001;SDS011;4046;48.774;8.732;2023-10-31T03:33:50;1.20;;;1.10;;
8001;SDS011;4046;48.774;8.732;2023-10-31T03:36:17;1.20;;;1.10;;
8001;SDS011;4046;48.774;8.732;2023-10-31T03:38:42;1.33;;;1.13;;
8001;SDS011;4046;48.774;8.732;2023-10-31T03:41:08;1.30;;;1.20;;
8001;SDS011;4046;48.774;8.732;2023-10-31T03:43:34;1.30;;;1.20;;
8001;SDS011;4046;48.774;8.732;2023-10-31T03:46:00;1.27;;;1.17;;
8001;SDS011;4046;48.774;8.732;2023-10-31T03:48:26;1.20;;;1.00;;
8001;SDS011;4046;48.774;8.732;2023-10-31T03:50:52;1.20;;;1.00;;
8001;SDS011;4046;48.774;8.732;2023-10-31T03:53:18;1.20;;;1.00;;
8001;SDS011;4046;48.774;8.732;2023-10-31T03:55:43;1.20;;;1.10;;
8001;SDS011;4046;48.774;8.732;2023-10-31T03:58:10;1.20;;;1.10;;
8001;SDS011;4046;48.774;8.732;2023-10-31T04:00:36;1.20;;;1.00;;
8001;SDS011;4046;48.774;8.732;2023-10-31T04:03:03;1.30;;;1.20;;
8001;SDS011;4046;48.774;8.732;2023-10-31T04:05:29;1.23;;;1.13;;
8001;SDS011;4046;48.774;8.732;2023-10-31T04:07:55;1.23;;;1.13;;
8001;SDS011;4046;48.774;8.732;2023-10-31T04:10:21;1.30;;;1.20;;
8001;SDS011;4046;48.774;8.732;2023-10-31T04:12:46;1.20;;;1.00;;
8001;SDS011;4046;48.774;8.732;2023-10-31T04:15:13;1.20;;;1.00;;
8001;SDS011;4046;48.774;8.732;2023-10-31T04:17:39;1.30;;;1.20;;
8001;SDS011;4046;48.774;8.732;2023-10-31T04:20:05;1.40;;;1.23;;
8001;SDS011;4046;48.774;8.732;2023-10-31T04:22:31;1.20;;;1.00;;
8001;SDS011;4046;48.774;8.732;2023-10-31T04:24:57;1.20;;;1.10;;
8001;SDS011;4046;48.774;8.732;2023-10-31T04:27:23;1.30;;;1.20;;
8001;SDS011;4046;48.774;8.732;2023-10-31T04:29:49;1.20;;;1.00;;
8001;SDS011;4046;48.774;8.732;2023-10-31T04:32:14;1.20;;;1.00;;
8001;SDS011;4046;48.774;8.732;2023-10-31T04:34:40;1.20;;;1.10;;
8001;SDS011;4046;48.774;8.732;2023-10-31T04:37:06;1.30;;;1.10;;
8001;SDS011;4046;48.774;8.732;2023-10-31T04:39:32;1.20;;;1.00;;
8001;SDS011;4046;48.774;8.732;2023-10-31T04:41:57;1.20;;;0.97;;
8001;SDS011;4046;48.774;8.732;2023-10-31T04:44:23;1.30;;;1.20;;
8001;SDS011;4046;48.774;8.732;2023-10-31T04:46:49;1.20;;;1.00;;
8001;SDS011;4046;48.774;8.732;2023-10-31T04:49:14;1.20;;;1.00;;
8001;SDS011;4046;48.774;8.732;2023-10-31T04:51:40;1.23;;;1.00;;
8001;SDS011;4046;48.774;8.732;2023-10-31T04:54:06;1.20;;;0.90;;
8001;SDS011;4046;48.774;8.732;2023-10-31T04:56:32;1.27;;;1.00;;
8001;SDS011;4046;48.774;8.732;2023-10-31T04:58:59;1.30;;;1.10;;
8001;SDS011;4046;48.774;8.732;2023-10-31T05:01:24;1.20;;;0.90;;
8001;SDS011;4046;48.774;8.732;2023-10-31T05:03:50;1.13;;;0.90;;
8001;SDS011;4046;48.774;8.732;2023-10-31T05:06:20;1.10;;;0.90;;
8001;SDS011;4046;48.774;8.732;2023-10-31T05:08:47;1.20;;;1.00;;
8001;SDS011;4046;48.774;8.732;2023-10-31T05:11:12;1.20;;;0.97;;
8001;SDS011;4046;48.774;8.732;2023-10-31T05:13:38;1.20;;;1.07;;
8001;SDS011;4046;48.774;8.732;2023-10-31T05:16:05;1.10;;;0.80;;
8001;SDS011;4046;48.774;8.732;2023-10-31T05:18:31;1.20;;;0.90;;
8001;SDS011;4046;48.774;8.732;2023-10-31T05:20:57;1.20;;;1.07;;
8001;SDS011;4046;48.774;8.732;2023-10-31T05:23:22;1.10;;;0.90;;
8001;SDS011;4046;48.774;8.732;2023-10-31T05:25:48;1.20;;;1.10;;
8001;SDS011;4046;48.774;8.732;2023-10-31T05:28:14;1.20;;;1.00;;
8001;SDS011;4046;48.774;8.732;2023-10-31T05:30:40;1.20;;;1.00;;
8001;SDS011;4046;48.774;8.732;2023-10-31T05:33:05;1.20;;;0.93;;
8001;SDS011;4046;48.774;8.732;2023-10-31T05:35:32;1.20;;;0.90;;
8001;SDS011;4046;48.774;8.732;2023-10-31T05:37:58;1.20;;;0.93;;
8001;SDS011;4046;48.774;8.732;2023-10-31T05:40:24;1.20;;;1.00;;
8001;SDS011;4046;48.774;8.732;2023-10-31T05:42:50;1.17;;;0.93;;
8001;SDS011;4046;48.774;8.732;2023-10-31T05:45:16;1.20;;;0.90;;
8001;SDS011;4046;48.774;8.732;2023-10-31T05:47:41;1.20;;;0.90;;
8001;SDS011;4046;48.774;8.732;2023-10-31T05:50:07;1.10;;;0.80;;
8001;SDS011;4046;48.774;8.732;2023-10-31T05:52:33;1.20;;;1.00;;
8001;SDS011;4046;48.774;8.732;2023-10-31T05:54:59;1.20;;;0.90;;
8001;SDS011;4046;48.774;8.732;2023-10-31T05:57:25;1.20;;;0.80;;
8001;SDS011;4046;48.774;8.732;2023-10-31T05:59:51;1.10;;;0.80;;
8001;SDS011;4046;48.774;8.732;2023-10-31T06:02:16;1.10;;;0.80;;
8001;SDS011;4046;48.774;8.732;2023-10-31T06:04:42;1.20;;;0.90;;
8001;SDS011;4046;48.774;8.732;2023-10-31T06:07:08;1.20;;;0.90;;
8001;SDS011;4046;48.774;8.732;2023-10-31T06:09:35;1.20;;;0.90;;
8001;SDS011;4046;48.774;8.732;2023-10-31T06:12:01;1.20;;;0.80;;
8001;SDS011;4046;48.774;8.732;2023-10-31T06:14:26;1.20;;;0.90;;
8001;SDS011;4046;48.774;8.732;2023-10-31T06:16:52;1.10;;;0.80;;
8001;SDS011;4046;48.774;8.732;2023-10-31T06:19:18;1.10;;;0.77;;
8001;SDS011;4046;48.774;8.732;2023-10-31T06:21:44;1.20;;;0.90;;
8001;SDS011;4046;48.774;8.732;2023-10-31T06:24:10;1.17;;;0.80;;
8001;SDS011;4046;48.774;8.732;2023-10-31T06:26:36;1.20;;;0.80;;
8001;SDS011;4046;48.774;8.732;2023-10-31T06:29:02;1.20;;;0.80;;
8001;SDS011;4046;48.774;8.732;2023-10-31T06:31:28;1.10;;;0.80;;
8001;SDS011;4046;48.774;8.732;2023-10-31T06:33:54;1.13;;;0.80;;
8001;SDS011;4046;48.774;8.732;2023-10-31T06:36:20;1.17;;;0.80;;
8001;SDS011;4046;48.774;8.732;2023-10-31T06:38:45;1.20;;;0.80;;
8001;SDS011;4046;48.774;8.732;2023-10-31T06:41:11;1.20;;;0.90;;
8001;SDS011;4046;48.774;8.732;2023-10-31T06:43:37;1.10;;;0.70;;
8001;SDS011;4046;48.774;8.732;2023-10-31T06:46:02;1.10;;;0.80;;
8001;SDS011;4046;48.774;8.732;2023-10-31T06:48:30;1.10;;;0.80;;
8001;SDS011;4046;48.774;8.732;2023-10-31T06:50:55;1.10;;;0.70;;
8001;SDS011;4046;48.774;8.732;2023-10-31T06:53:21;1.10;;;0.70;;
8001;SDS011;4046;48.774;8.732;2023-10-31T06:55:47;1.10;;;0.70;;
8001;SDS011;4046;48.774;8.732;2023-10-31T06:58:13;1.10;;;0.70;;
8001;SDS011;4046;48.774;8.732;2023-10-31T07:00:39;1.10;;;0.70;;
8001;SDS011;4046;48.774;8.732;2023-10-31T07:03:05;1.10;;;0.70;;
8001;SDS011;4046;48.774;8.732;2023-10-31T07:05:37;1.10;;;0.80;;
8001;SDS011;4046;48.774;8.732;2023-10-31T07:08:03;1.10;;;0.70;;
8001;SDS011;4046;48.774;8.732;2023-10-31T07:10:29;1.10;;;0.70;;
8001;SDS011;4046;48.774;8.732;2023-10-31T07:12:55;1.10;;;0.80;;
8001;SDS011;4046;48.774;8.732;2023-10-31T07:15:22;1.10;;;0.70;;
8001;SDS011;4046;48.774;8.732;2023-10-31T07:17:47;1.10;;;0.70;;
8001;SDS011;4046;48.774;8.732;2023-10-31T07:20:13;1.20;;;0.80;;
8001;SDS011;4046;48.774;8.732;2023-10-31T07:22:39;1.10;;;0.77;;
8001;SDS011;4046;48.774;8.732;2023-10-31T07:25:05;1.10;;;0.70;;
8001;SDS011;4046;48.774;8.732;2023-10-31T07:27:32;1.10;;;0.80;;
8001;SDS011;4046;48.774;8.732;2023-10-31T07:29:57;1.10;;;0.70;;
8001;SDS011;4046;48.774;8.732;2023-10-31T07:32:23;1.10;;;0.80;;
8001;SDS011;4046;48.774;8.732;2023-10-31T07:34:50;1.10;;;0.70;;
8001;SDS011;4046;48.774;8.732;2023-10-31T07:37:15;1.10;;;0.70;;
8001;SDS011;4046;48.774;8.732;2023-10-31T07:39:41;1.10;;;0.70;;
8001;SDS011;4046;48.774;8.732;2023-10-31T07:42:07;1.10;;;0.70;;
8001;SDS011;4046;48.774;8.732;2023-10-31T07:44:33;1.10;;;0.67;;
8001;SDS011;4046;48.774;8.732;2023-10-31T07:46:59;1.10;;;0.70;;
8001;SDS011;4046;48.774;8.732;2023-10-31T07:49:25;1.10;;;0.70;;
8001;SDS011;4046;48.774;8.732;2023-10-31T07:51:51;1.20;;;0.83;;
8001;SDS011;4046;48.774;8.732;2023-10-31T07:54:17;1.10;;;0.70;;
8001;SDS011;4046;48.774;8.732;2023-10-31T07:56:44;1.30;;;0.80;;
8001;SDS011;4046;48.774;8.732;2023-10-31T07:59:09;2.07;;;1.00;;
8001;SDS011;4046;48.774;8.732;2023-10-31T08:01:36;3.67;;;0.90;;
8001;SDS011;4046;48.774;8.732;2023-10-31T08:04:02;8.83;;;1.00;;
8001;SDS011;4046;48.774;8.732;2023-10-31T08:06:27;4.33;;;0.70;;
8001;SDS011;4046;48.774;8.732;2023-10-31T08:08:53;1.67;;;0.80;;
8001;SDS011;4046;48.774;8.732;2023-10-31T08:11:19;3.80;;;0.90;;
8001;SDS011;4046;48.774;8.732;2023-10-31T08:13:45;4.00;;;0.70;;
8001;SDS011;4046;48.774;8.732;2023-10-31T08:16:16;1.20;;;0.80;;
8001;SDS011;4046;48.774;8.732;2023-10-31T08:18:45;2.23;;;0.80;;
8001;SDS011;4046;48.774;8.732;2023-10-31T08:21:11;1.70;;;0.70;;
8001;SDS011;4046;48.774;8.732;2023-10-31T08:23:37;1.50;;;0.77;;
8001;SDS011;4046;48.774;8.732;2023-10-31T08:26:03;2.40;;;0.80;;
8001;SDS011;4046;48.774;8.732;2023-10-31T08:28:29;2.07;;;0.60;;
8001;SDS011;4046;48.774;8.732;2023-10-31T08:30:56;2.37;;;0.90;;
8001;SDS011;4046;48.774;8.732;2023-10-31T08:33:22;3.00;;;0.73;;
8001;SDS011;4046;48.774;8.732;2023-10-31T08:35:48;1.63;;;0.80;;
8001;SDS011;4046;48.774;8.732;2023-10-31T08:38:14;3.73;;;0.80;;
8001;SDS011;4046;48.774;8.732;2023-10-31T08:40:40;2.07;;;0.70;;
8001;SDS011;4046;48.774;8.732;2023-10-31T08:43:07;3.70;;;0.80;;
8001;SDS011;4046;48.774;8.732;2023-10-31T08:45:33;1.60;;;0.70;;
8001;SDS011;4046;48.774;8.732;2023-10-31T08:47:59;2.00;;;0.70;;
8001;SDS011;4046;48.774;8.732;2023-10-31T08:50:25;2.80;;;0.63;;
8001;SDS011;4046;48.774;8.732;2023-10-31T08:52:51;2.23;;;0.87;;
8001;SDS011;4046;48.774;8.732;2023-10-31T08:55:17;1.30;;;0.70;;
8001;SDS011;4046;48.774;8.732;2023-10-31T08:57:43;2.67;;;0.77;;
8001;SDS011;4046;48.774;8.732;2023-10-31T09:00:09;1.93;;;0.80;;
8001;SDS011;4046;48.774;8.732;2023-10-31T09:02:35;12.87;;;1.07;;
8001;SDS011;4046;48.774;8.732;2023-10-31T09:05:01;3.77;;;0.93;;
8001;SDS011;4046;48.774;8.732;2023-10-31T09:07:27;3.43;;;0.80;;
8001;SDS011;4046;48.774;8.732;2023-10-31T09:09:53;3.63;;;0.90;;
8001;SDS011;4046;48.774;8.732;2023-10-31T09:12:18;1.63;;;1.00;;
8001;SDS011;4046;48.774;8.732;2023-10-31T09:14:44;2.03;;;0.70;;
8001;SDS011;4046;48.774;8.732;2023-10-31T09:17:10;1.97;;;0.90;;
8001;SDS011;4046;48.774;8.732;2023-10-31T09:19:36;2.00;;;1.00;;
8001;SDS011;4046;48.774;8.732;2023-10-31T09:22:02;2.20;;;0.93;;
8001;SDS011;4046;48.774;8.732;2023-10-31T09:24:28;2.07;;;0.80;;
8001;SDS011;4046;48.774;8.732;2023-10-31T09:26:53;2.20;;;0.83;;
8001;SDS011;4046;48.774;8.732;2023-10-31T09:29:20;1.30;;;0.70;;
8001;SDS011;4046;48.774;8.732;2023-10-31T09:31:46;1.50;;;0.80;;
8001;SDS011;4046;48.774;8.732;2023-10-31T09:34:12;1.20;;;0.80;;
8001;SDS011;4046;48.774;8.732;2023-10-31T09:36:39;1.53;;;0.80;;
8001;SDS011;4046;48.774;8.732;2023-10-31T09:39:05;2.03;;;0.80;;
8001;SDS011;4046;48.774;8.732;2023-10-31T09:41:31;1.90;;;0.90;;
8001;SDS011;4046;48.774;8.732;2023-10-31T09:44:00;1.30;;;0.80;;
8001;SDS011;4046;48.774;8.732;2023-10-31T09:46:27;2.90;;;0.90;;
8001;SDS011;4046;48.774;8.732;2023-10-31T09:48:53;3.30;;;0.90;;
8001;SDS011;4046;48.774;8.732;2023-10-31T09:51:21;1.63;;;0.80;;
8001;SDS011;4046;48.774;8.732;2023-10-31T09:53:47;1.70;;;0.80;;
8001;SDS011;4046;48.774;8.732;2023-10-31T09:56:13;2.63;;;0.80;;
8001;SDS011;4046;48.774;8.732;2023-10-31T09:58:40;5.53;;;0.90;;
8001;SDS011;4046;48.774;8.732;2023-10-31T10:01:06;3.73;;;1.10;;
8001;SDS011;4046;48.774;8.732;2023-10-31T10:03:33;4.03;;;1.00;;
8001;SDS011;4046;48.774;8.732;2023-10-31T10:05:59;8.50;;;1.10;;
8001;SDS011;4046;48.774;8.732;2023-10-31T10:08:27;11.70;;;1.20;;
8001;SDS011;4046;48.774;8.732;2023-10-31T10:10:53;6.33;;;1.10;;
8001;SDS011;4046;48.774;8.732;2023-10-31T10:13:23;7.83;;;2.00;;
8001;SDS011;4046;48.774;8.732;2023-10-31T10:15:49;4.53;;;1.20;;
8001;SDS011;4046;48.774;8.732;2023-10-31T10:18:25;5.90;;;1.50;;
8001;SDS011;4046;48.774;8.732;2023-10-31T10:21:00;6.57;;;1.00;;
8001;SDS011;4046;48.774;8.732;2023-10-31T10:23:27;4.07;;;1.27;;
8001;SDS011;4046;48.774;8.732;2023-10-31T10:25:54;3.30;;;1.17;;
8001;SDS011;4046;48.774;8.732;2023-10-31T10:28:21;3.50;;;1.20;;
8001;SDS011;4046;48.774;8.732;2023-10-31T10:30:47;11.27;;;1.47;;
8001;SDS011;4046;48.774;8.732;2023-10-31T10:33:14;8.17;;;1.27;;
8001;SDS011;4046;48.774;8.732;2023-10-31T10:35:41;1.90;;;1.00;;
8001;SDS011;4046;48.774;8.732;2023-10-31T10:38:11;5.67;;;1.03;;
8001;SDS011;4046;48.774;8.732;2023-10-31T10:40:39;6.03;;;1.10;;
8001;SDS011;4046;48.774;8.732;2023-10-31T10:43:12;3.77;;;1.00;;
8001;SDS011;4046;48.774;8.732;2023-10-31T10:45:55;4.13;;;1.10;;
8001;SDS011;4046;48.774;8.732;2023-10-31T10:48:22;3.83;;;1.20;;
8001;SDS011;4046;48.774;8.732;2023-10-31T10:51:03;6.53;;;1.57;;
8001;SDS011;4046;48.774;8.732;2023-10-31T10:53:40;1.80;;;1.00;;
8001;SDS011;4046;48.774;8.732;2023-10-31T10:56:16;3.77;;;1.30;;
8001;SDS011;4046;48.774;8.732;2023-10-31T11:01:18;3.50;;;1.30;;
8001;SDS011;4046;48.774;8.732;2023-10-31T11:03:45;3.83;;;1.07;;
8001;SDS011;4046;48.774;8.732;2023-10-31T11:06:11;2.97;;;1.20;;
8001;SDS011;4046;48.774;8.732;2023-10-31T11:08:38;5.70;;;1.20;;
8001;SDS011;4046;48.774;8.732;2023-10-31T11:11:05;7.93;;;1.10;;
8001;SDS011;4046;48.774;8.732;2023-10-31T11:13:31;6.40;;;1.27;;
8001;SDS011;4046;48.774;8.732;2023-10-31T11:15:59;5.40;;;1.43;;
8001;SDS011;4046;48.774;8.732;2023-10-31T11:18:34;5.13;;;1.23;;
8001;SDS011;4046;48.774;8.732;2023-10-31T11:21:00;2.70;;;1.00;;
8001;SDS011;4046;48.774;8.732;2023-10-31T11:23:27;4.03;;;1.20;;
8001;SDS011;4046;48.774;8.732;2023-10-31T11:25:53;4.60;;;1.10;;
8001;SDS011;4046;48.774;8.732;2023-10-31T11:28:20;6.63;;;1.10;;
8001;SDS011;4046;48.774;8.732;2023-10-31T11:30:49;6.50;;;1.00;;
8001;SDS011;4046;48.774;8.732;2023-10-31T11:33:16;2.33;;;1.10;;
8001;SDS011;4046;48.774;8.732;2023-10-31T11:35:49;1.40;;;1.00;;
8001;SDS011;4046;48.774;8.732;2023-10-31T11:38:16;3.73;;;0.90;;
8001;SDS011;4046;48.774;8.732;2023-10-31T11:43:13;3.13;;;1.20;;
8001;SDS011;4046;48.774;8.732;2023-10-31T11:48:13;2.03;;;0.83;;
8001;SDS011;4046;48.774;8.732;2023-10-31T11:50:39;2.77;;;1.17;;
8001;SDS011;4046;48.774;8.732;2023-10-31T11:55:33;1.80;;;1.00;;
8001;SDS011;4046;48.774;8.732;2023-10-31T11:58:18;4.37;;;1.20;;
8001;SDS011;4046;48.774;8.732;2023-10-31T12:00:52;3.27;;;1.10;;
8001;SDS011;4046;48.774;8.732;2023-10-31T12:03:26;3.67;;;1.00;;
8001;SDS011;4046;48.774;8.732;2023-10-31T12:08:31;2.77;;;1.10;;
8001;SDS011;4046;48.774;8.732;2023-10-31T12:13:35;2.60;;;1.10;;
8001;SDS011;4046;48.774;8.732;2023-10-31T12:16:02;2.70;;;1.10;;
8001;SDS011;4046;48.774;8.732;2023-10-31T12:18:29;3.63;;;1.00;;
8001;SDS011;4046;48.774;8.732;2023-10-31T12:20:55;2.37;;;1.00;;
8001;SDS011;4046;48.774;8.732;2023-10-31T12:23:21;1.60;;;0.90;;
8001;SDS011;4046;48.774;8.732;2023-10-31T12:25:50;3.93;;;1.20;;
8001;SDS011;4046;48.774;8.732;2023-10-31T12:28:17;2.60;;;0.87;;
8001;SDS011;4046;48.774;8.732;2023-10-31T12:30:50;3.10;;;1.00;;
8001;SDS011;4046;48.774;8.732;2023-10-31T12:33:19;5.53;;;1.40;;
8001;SDS011;4046;48.774;8.732;2023-10-31T12:35:47;6.53;;;1.00;;
8001;SDS011;4046;48.774;8.732;2023-10-31T12:38:14;4.27;;;1.33;;
8001;SDS011;4046;48.774;8.732;2023-10-31T12:40:43;2.60;;;1.10;;
8001;SDS011;4046;48.774;8.732;2023-10-31T12:43:09;2.57;;;1.00;;
8001;SDS011;4046;48.774;8.732;2023-10-31T12:45:35;2.70;;;0.90;;
8001;SDS011;4046;48.774;8.732;2023-10-31T12:48:08;2.07;;;0.80;;
8001;SDS011;4046;48.774;8.732;2023-10-31T12:50:36;3.27;;;1.00;;
8001;SDS011;4046;48.774;8.732;2023-10-31T12:53:03;2.07;;;0.97;;
8001;SDS011;4046;48.774;8.732;2023-10-31T12:55:30;1.40;;;0.80;;
8001;SDS011;4046;48.774;8.732;2023-10-31T12:57:57;1.30;;;0.80;;
8001;SDS011;4046;48.774;8.732;2023-10-31T13:00:29;3.70;;;1.20;;
8001;SDS011;4046;48.774;8.732;2023-10-31T13:03:06;1.60;;;0.80;;
8001;SDS011;4046;48.774;8.732;2023-10-31T13:05:33;1.60;;;1.03;;
8001;SDS011;4046;48.774;8.732;2023-10-31T13:07:59;3.03;;;1.40;;
8001;SDS011;4046;48.774;8.732;2023-10-31T13:10:28;4.00;;;1.10;;
8001;SDS011;4046;48.774;8.732;2023-10-31T13:12:54;2.10;;;0.90;;
8001;SDS011;4046;48.774;8.732;2023-10-31T13:15:21;1.20;;;0.97;;
8001;SDS011;4046;48.774;8.732;2023-10-31T13:17:48;2.33;;;1.00;;
8001;SDS011;4046;48.774;8.732;2023-10-31T13:20:20;3.83;;;1.20;;
8001;SDS011;4046;48.774;8.732;2023-10-31T13:22:46;1.47;;;0.80;;
8001;SDS011;4046;48.774;8.732;2023-10-31T13:25:13;2.57;;;0.90;;
8001;SDS011;4046;48.774;8.732;2023-10-31T13:27:40;2.90;;;0.87;;
8001;SDS011;4046;48.774;8.732;2023-10-31T13:30:08;6.00;;;0.90;;
8001;SDS011;4046;48.774;8.732;2023-10-31T13:32:36;3.63;;;1.00;;
8001;SDS011;4046;48.774;8.732;2023-10-31T13:35:02;7.63;;;1.30;;
8001;SDS011;4046;48.774;8.732;2023-10-31T13:37:28;4.40;;;1.03;;
8001;SDS011;4046;48.774;8.732;2023-10-31T13:39:54;3.17;;;1.10;;
8001;SDS011;4046;48.774;8.732;2023-10-31T13:42:19;1.90;;;1.03;;
8001;SDS011;4046;48.774;8.732;2023-10-31T13:44:45;3.20;;;1.00;;
8001;SDS011;4046;48.774;8.732;2023-10-31T13:47:11;3.60;;;1.00;;
8001;SDS011;4046;48.774;8.732;2023-10-31T13:49:37;4.30;;;1.00;;
8001;SDS011;4046;48.774;8.732;2023-10-31T13:52:03;1.40;;;0.80;;
8001;SDS011;4046;48.774;8.732;2023-10-31T13:54:31;1.50;;;0.80;;
8001;SDS011;4046;48.774;8.732;2023-10-31T13:56:57;1.20;;;0.90;;
8001;SDS011;4046;48.774;8.732;2023-10-31T13:59:24;2.67;;;0.90;;
8001;SDS011;4046;48.774;8.732;2023-10-31T14:01:50;4.30;;;0.90;;
8001;SDS011;4046;48.774;8.732;2023-10-31T14:04:17;5.70;;;0.90;;
8001;SDS011;4046;48.774;8.732;2023-10-31T14:06:43;2.67;;;0.97;;
8001;SDS011;4046;48.774;8.732;2023-10-31T14:09:09;5.30;;;0.90;;
8001;SDS011;4046;48.774;8.732;2023-10-31T14:11:37;2.23;;;0.90;;
8001;SDS011;4046;48.774;8.732;2023-10-31T14:14:04;1.20;;;0.90;;
8001;SDS011;4046;48.774;8.732;2023-10-31T14:16:34;3.00;;;1.00;;
8001;SDS011;4046;48.774;8.732;2023-10-31T14:19:01;4.47;;;1.10;;
8001;SDS011;4046;48.774;8.732;2023-10-31T14:21:28;3.00;;;1.00;;
8001;SDS011;4046;48.774;8.732;2023-10-31T14:23:54;4.23;;;1.10;;
8001;SDS011;4046;48.774;8.732;2023-10-31T14:26:20;1.37;;;0.97;;
8001;SDS011;4046;48.774;8.732;2023-10-31T14:28:46;2.70;;;1.07;;
8001;SDS011;4046;48.774;8.732;2023-10-31T14:31:13;2.70;;;0.90;;
8001;SDS011;4046;48.774;8.732;2023-10-31T14:33:39;3.57;;;1.33;;
8001;SDS011;4046;48.774;8.732;2023-10-31T14:36:05;5.73;;;1.20;;
8001;SDS011;4046;48.774;8.732;2023-10-31T14:38:31;1.97;;;0.90;;
8001;SDS011;4046;48.774;8.732;2023-10-31T14:40:57;6.50;;;1.03;;
8001;SDS011;4046;48.774;8.732;2023-10-31T14:43:23;3.13;;;0.87;;
8001;SDS011;4046;48.774;8.732;2023-10-31T14:45:48;4.20;;;0.90;;
8001;SDS011;4046;48.774;8.732;2023-10-31T14:48:14;3.23;;;1.17;;
8001;SDS011;4046;48.774;8.732;2023-10-31T14:50:40;2.47;;;1.00;;
8001;SDS011;4046;48.774;8.732;2023-10-31T14:53:06;1.40;;;1.10;;
8001;SDS011;4046;48.774;8.732;2023-10-31T14:55:34;1.40;;;1.00;;
8001;SDS011;4046;48.774;8.732;2023-10-31T14:58:00;1.20;;;0.90;;
8001;SDS011;4046;48.774;8.732;2023-10-31T15:00:26;1.30;;;0.90;;
8001;SDS011;4046;48.774;8.732;2023-10-31T15:02:51;2.30;;;1.00;;
8001;SDS011;4046;48.774;8.732;2023-10-31T15:05:17;3.10;;;1.10;;
8001;SDS011;4046;48.774;8.732;2023-10-31T15:07:43;2.20;;;0.90;;
8001;SDS011;4046;48.774;8.732;2023-10-31T15:10:09;2.27;;;1.10;;
8001;SDS011;4046;48.774;8.732;2023-10-31T15:12:34;1.73;;;1.00;;
8001;SDS011;4046;48.774;8.732;2023-10-31T15:15:00;3.60;;;1.07;;
8001;SDS011;4046;48.774;8.732;2023-10-31T15:17:26;2.00;;;0.90;;
8001;SDS011;4046;48.774;8.732;2023-10-31T15:19:51;2.90;;;1.10;;
8001;SDS011;4046;48.774;8.732;2023-10-31T15:22:17;1.67;;;0.90;;
8001;SDS011;4046;48.774;8.732;2023-10-31T15:24:43;3.03;;;0.90;;
8001;SDS011;4046;48.774;8.732;2023-10-31T15:27:08;1.40;;;0.90;;